sensor_id;sensor_type;location;lat;lon;timestamp;pressure;altitude;pressure_sealevel;temperature;humidity
44044;BME280;29709;52.396;16.796;2023-02-10T00:00:24;103192.99;;;0.70;58.67
44044;BME280;29709;52.396;16.796;2023-02-10T00:03:28;103189.56;;;0.65;58.89
44044;BME280;29709;52.396;16.796;2023-02-10T00:06:31;103198.62;;;0.64;58.95
44044;BME280;29709;52.396;16.796;2023-02-10T00:09:34;103205.80;;;0.65;59.02
44044;BME280;29709;52.396;16.796;2023-02-10T00:13:03;103203.93;;;0.67;58.96
44044;BME280;29709;52.396;16.796;2023-02-10T00:16:10;103201.22;;;0.67;58.96
44044;BME280;29709;52.396;16.796;2023-02-10T00:19:14;103192.32;;;0.64;59.05
44044;BME280;29709;52.396;16.796;2023-02-10T00:22:17;103190.56;;;0.61;59.21
44044;BME280;29709;52.396;16.796;2023-02-10T00:25:20;103193.42;;;0.56;59.43
44044;BME280;29709;52.396;16.796;2023-02-10T00:28:23;103188.11;;;0.53;59.58
44044;BME280;29709;52.396;16.796;2023-02-10T00:31:26;103191.71;;;0.54;59.56
44044;BME280;29709;52.396;16.796;2023-02-10T00:34:30;103197.17;;;0.52;59.70
44044;BME280;29709;52.396;16.796;2023-02-10T00:37:33;103196.25;;;0.52;59.73
44044;BME280;29709;52.396;16.796;2023-02-10T00:40:36;103192.75;;;0.48;59.72
44044;BME280;29709;52.396;16.796;2023-02-10T00:43:40;103196.45;;;0.46;59.84
44044;BME280;29709;52.396;16.796;2023-02-10T00:47:10;103200.18;;;0.42;60.03
44044;BME280;29709;52.396;16.796;2023-02-10T00:50:13;103192.09;;;0.40;60.25
44044;BME280;29709;52.396;16.796;2023-02-10T00:53:16;103192.23;;;0.36;60.16
44044;BME280;29709;52.396;16.796;2023-02-10T00:56:20;103179.64;;;0.35;60.16
44044;BME280;29709;52.396;16.796;2023-02-10T00:59:23;103170.80;;;0.28;60.44
44044;BME280;29709;52.396;16.796;2023-02-10T01:02:26;103181.68;;;0.26;60.47
44044;BME280;29709;52.396;16.796;2023-02-10T01:05:31;103191.45;;;0.31;60.58
44044;BME280;29709;52.396;16.796;2023-02-10T01:08:37;103178.76;;;0.34;60.55
44044;BME280;29709;52.396;16.796;2023-02-10T01:11:42;103178.66;;;0.37;60.50
44044;BME280;29709;52.396;16.796;2023-02-10T01:15:15;103184.16;;;0.34;60.69
44044;BME280;29709;52.396;16.796;2023-02-10T01:18:19;103187.76;;;0.35;60.82
44044;BME280;29709;52.396;16.796;2023-02-10T01:21:24;103175.94;;;0.37;60.69
44044;BME280;29709;52.396;16.796;2023-02-10T01:24:27;103178.71;;;0.36;60.89
44044;BME280;29709;52.396;16.796;2023-02-10T01:27:32;103181.27;;;0.40;60.74
44044;BME280;29709;52.396;16.796;2023-02-10T01:30:38;103186.77;;;0.37;60.76
44044;BME280;29709;52.396;16.796;2023-02-10T01:33:43;103180.38;;;0.40;60.80
44044;BME280;29709;52.396;16.796;2023-02-10T01:36:48;103166.84;;;0.40;60.91
44044;BME280;29709;52.396;16.796;2023-02-10T01:40:23;103167.93;;;0.34;61.11
44044;BME280;29709;52.396;16.796;2023-02-10T01:43:27;103158.05;;;0.33;61.08
44044;BME280;29709;52.396;16.796;2023-02-10T01:46:34;103159.72;;;0.37;61.37
44044;BME280;29709;52.396;16.796;2023-02-10T01:49:45;103154.14;;;0.43;61.16
44044;BME280;29709;52.396;16.796;2023-02-10T01:52:50;103169.40;;;0.46;61.53
44044;BME280;29709;52.396;16.796;2023-02-10T01:55:55;103161.94;;;0.54;61.29
44044;BME280;29709;52.396;16.796;2023-02-10T01:58:59;103170.74;;;0.61;61.24
44044;BME280;29709;52.396;16.796;2023-02-10T02:02:29;103176.15;;;0.61;61.29
44044;BME280;29709;52.396;16.796;2023-02-10T02:05:37;103173.39;;;0.62;61.37
44044;BME280;29709;52.396;16.796;2023-02-10T02:08:41;103171.45;;;0.67;61.30
44044;BME280;29709;52.396;16.796;2023-02-10T02:15:07;103167.65;;;0.73;61.21
44044;BME280;29709;52.396;16.796;2023-02-10T02:31:48;103169.95;;;0.86;61.09
44044;BME280;29709;52.396;16.796;2023-02-10T02:35:24;103172.59;;;0.88;61.12
44044;BME280;29709;52.396;16.796;2023-02-10T02:38:29;103176.15;;;0.90;60.87
44044;BME280;29709;52.396;16.796;2023-02-10T02:41:33;103175.16;;;0.93;60.97
44044;BME280;29709;52.396;16.796;2023-02-10T02:44:37;103179.51;;;0.98;60.92
44044;BME280;29709;52.396;16.796;2023-02-10T02:54:45;103181.69;;;1.15;60.90
44044;BME280;29709;52.396;16.796;2023-02-10T03:01:07;103179.70;;;1.20;60.95
44044;BME280;29709;52.396;16.796;2023-02-10T03:04:15;103172.40;;;1.22;60.47
44044;BME280;29709;52.396;16.796;2023-02-10T03:07:20;103174.91;;;1.28;60.46
44044;BME280;29709;52.396;16.796;2023-02-10T03:10:50;103186.83;;;1.23;60.71
44044;BME280;29709;52.396;16.796;2023-02-10T03:13:53;103182.23;;;1.26;60.83
44044;BME280;29709;52.396;16.796;2023-02-10T03:16:57;103185.64;;;1.31;60.77
44044;BME280;29709;52.396;16.796;2023-02-10T03:20:00;103192.77;;;1.34;60.62
44044;BME280;29709;52.396;16.796;2023-02-10T03:23:03;103191.71;;;1.39;60.78
44044;BME280;29709;52.396;16.796;2023-02-10T03:26:06;103194.36;;;1.41;60.74
44044;BME280;29709;52.396;16.796;2023-02-10T03:29:11;103191.54;;;1.44;60.72
44044;BME280;29709;52.396;16.796;2023-02-10T03:32:15;103193.29;;;1.47;60.89
44044;BME280;29709;52.396;16.796;2023-02-10T03:35:19;103212.98;;;1.52;60.84
44044;BME280;29709;52.396;16.796;2023-02-10T03:38:23;103213.97;;;1.49;61.19
44044;BME280;29709;52.396;16.796;2023-02-10T03:41:53;103220.16;;;1.53;61.14
44044;BME280;29709;52.396;16.796;2023-02-10T03:44:57;103222.92;;;1.51;61.19
44044;BME280;29709;52.396;16.796;2023-02-10T03:48:00;103214.86;;;1.50;61.37
44044;BME280;29709;52.396;16.796;2023-02-10T03:51:06;103219.45;;;1.48;61.26
44044;BME280;29709;52.396;16.796;2023-02-10T03:54:09;103222.16;;;1.48;61.53
44044;BME280;29709;52.396;16.796;2023-02-10T03:57:13;103218.51;;;1.49;61.62
44044;BME280;29709;52.396;16.796;2023-02-10T04:00:16;103221.29;;;1.45;61.93
44044;BME280;29709;52.396;16.796;2023-02-10T04:03:19;103227.76;;;1.41;61.98
44044;BME280;29709;52.396;16.796;2023-02-10T04:06:23;103222.53;;;1.35;62.05
44044;BME280;29709;52.396;16.796;2023-02-10T04:09:26;103229.00;;;1.31;62.11
44044;BME280;29709;52.396;16.796;2023-02-10T04:12:56;103236.24;;;1.31;62.38
44044;BME280;29709;52.396;16.796;2023-02-10T04:16:04;103228.22;;;1.28;62.58
44044;BME280;29709;52.396;16.796;2023-02-10T04:19:07;103225.63;;;1.23;62.70
44044;BME280;29709;52.396;16.796;2023-02-10T04:22:11;103230.12;;;1.24;62.94
44044;BME280;29709;52.396;16.796;2023-02-10T04:25:14;103222.92;;;1.23;62.78
44044;BME280;29709;52.396;16.796;2023-02-10T04:28:17;103232.99;;;1.20;62.93
44044;BME280;29709;52.396;16.796;2023-02-10T04:31:21;103234.81;;;1.19;62.97
44044;BME280;29709;52.396;16.796;2023-02-10T04:34:24;103228.45;;;1.20;63.41
44044;BME280;29709;52.396;16.796;2023-02-10T04:37:27;103230.10;;;1.26;63.32
44044;BME280;29709;52.396;16.796;2023-02-10T04:40:57;103221.91;;;1.27;63.74
44044;BME280;29709;52.396;16.796;2023-02-10T04:44:00;103217.16;;;1.34;63.46
44044;BME280;29709;52.396;16.796;2023-02-10T04:47:04;103217.32;;;1.29;63.68
44044;BME280;29709;52.396;16.796;2023-02-10T04:50:07;103216.56;;;1.24;64.17
44044;BME280;29709;52.396;16.796;2023-02-10T04:53:10;103220.38;;;1.19;64.19
44044;BME280;29709;52.396;16.796;2023-02-10T04:56:14;103224.04;;;1.18;64.20
44044;BME280;29709;52.396;16.796;2023-02-10T04:59:17;103221.51;;;1.11;64.48
44044;BME280;29709;52.396;16.796;2023-02-10T05:02:20;103227.91;;;1.09;64.59
44044;BME280;29709;52.396;16.796;2023-02-10T05:05:23;103237.85;;;1.08;64.66
44044;BME280;29709;52.396;16.796;2023-02-10T05:08:27;103235.16;;;1.08;64.94
44044;BME280;29709;52.396;16.796;2023-02-10T05:11:31;103225.26;;;1.07;65.21
44044;BME280;29709;52.396;16.796;2023-02-10T05:14:59;103225.48;;;1.00;65.49
44044;BME280;29709;52.396;16.796;2023-02-10T05:18:02;103219.08;;;1.02;66.15
44044;BME280;29709;52.396;16.796;2023-02-10T05:21:06;103220.90;;;1.02;66.00
44044;BME280;29709;52.396;16.796;2023-02-10T05:24:10;103221.72;;;1.05;66.09
44044;BME280;29709;52.396;16.796;2023-02-10T05:27:13;103219.03;;;1.04;66.08
44044;BME280;29709;52.396;16.796;2023-02-10T05:30:16;103229.92;;;1.02;66.34
44044;BME280;29709;52.396;16.796;2023-02-10T05:33:20;103238.91;;;1.03;66.56
44044;BME280;29709;52.396;16.796;2023-02-10T05:36:24;103239.91;;;1.00;66.62
44044;BME280;29709;52.396;16.796;2023-02-10T05:39:27;103245.20;;;1.05;66.75
44044;BME280;29709;52.396;16.796;2023-02-10T05:42:30;103245.92;;;1.10;66.61
44044;BME280;29709;52.396;16.796;2023-02-10T05:45:59;103252.19;;;1.12;66.48
44044;BME280;29709;52.396;16.796;2023-02-10T05:49:02;103242.34;;;1.09;66.62
44044;BME280;29709;52.396;16.796;2023-02-10T05:52:05;103248.65;;;1.10;66.88
44044;BME280;29709;52.396;16.796;2023-02-10T05:55:09;103250.46;;;1.09;66.93
44044;BME280;29709;52.396;16.796;2023-02-10T05:58:12;103253.89;;;1.14;66.79
44044;BME280;29709;52.396;16.796;2023-02-10T06:01:16;103257.27;;;1.23;66.75
44044;BME280;29709;52.396;16.796;2023-02-10T06:04:19;103264.50;;;1.22;66.82
44044;BME280;29709;52.396;16.796;2023-02-10T06:07:23;103262.59;;;1.26;66.92
44044;BME280;29709;52.396;16.796;2023-02-10T06:10:26;103262.55;;;1.27;66.77
44044;BME280;29709;52.396;16.796;2023-02-10T06:13:29;103253.66;;;1.22;67.13
44044;BME280;29709;52.396;16.796;2023-02-10T06:16:59;103248.46;;;1.16;67.04
44044;BME280;29709;52.396;16.796;2023-02-10T06:20:03;103247.57;;;1.15;67.24
44044;BME280;29709;52.396;16.796;2023-02-10T06:23:06;103247.48;;;1.19;67.15
44044;BME280;29709;52.396;16.796;2023-02-10T06:26:09;103256.48;;;1.19;67.29
44044;BME280;29709;52.396;16.796;2023-02-10T06:29:12;103271.74;;;1.22;67.81
44044;BME280;29709;52.396;16.796;2023-02-10T06:32:16;103269.64;;;1.31;67.53
44044;BME280;29709;52.396;16.796;2023-02-10T06:35:22;103274.95;;;1.34;67.25
44044;BME280;29709;52.396;16.796;2023-02-10T06:38:25;103266.80;;;1.36;67.60
44044;BME280;29709;52.396;16.796;2023-02-10T06:41:28;103271.23;;;1.38;67.46
44044;BME280;29709;52.396;16.796;2023-02-10T06:44:32;103275.41;;;1.49;67.56
44044;BME280;29709;52.396;16.796;2023-02-10T06:48:01;103281.55;;;1.54;67.53
44044;BME280;29709;52.396;16.796;2023-02-10T06:51:05;103281.20;;;1.64;67.41
44044;BME280;29709;52.396;16.796;2023-02-10T06:54:08;103281.14;;;1.67;67.46
44044;BME280;29709;52.396;16.796;2023-02-10T06:57:11;103286.27;;;1.75;67.15
44044;BME280;29709;52.396;16.796;2023-02-10T07:00:15;103290.76;;;1.76;67.42
44044;BME280;29709;52.396;16.796;2023-02-10T07:03:18;103289.87;;;1.76;67.39
44044;BME280;29709;52.396;16.796;2023-02-10T07:06:21;103286.13;;;1.80;67.59
44044;BME280;29709;52.396;16.796;2023-02-10T07:09:26;103289.69;;;1.82;67.43
44044;BME280;29709;52.396;16.796;2023-02-10T07:12:30;103295.94;;;1.84;67.78
44044;BME280;29709;52.396;16.796;2023-02-10T07:16:04;103302.10;;;1.89;67.82
44044;BME280;29709;52.396;16.796;2023-02-10T07:19:08;103318.32;;;1.90;67.70
44044;BME280;29709;52.396;16.796;2023-02-10T07:22:11;103319.20;;;1.91;68.30
44044;BME280;29709;52.396;16.796;2023-02-10T07:25:16;103316.19;;;2.00;67.94
44044;BME280;29709;52.396;16.796;2023-02-10T07:28:22;103329.45;;;2.09;68.02
44044;BME280;29709;52.396;16.796;2023-02-10T07:31:26;103331.05;;;2.15;67.80
44044;BME280;29709;52.396;16.796;2023-02-10T07:34:31;103337.41;;;2.14;67.71
44044;BME280;29709;52.396;16.796;2023-02-10T07:37:38;103330.16;;;2.14;67.69
44044;BME280;29709;52.396;16.796;2023-02-10T07:41:10;103330.99;;;2.16;67.97
44044;BME280;29709;52.396;16.796;2023-02-10T07:44:13;103335.28;;;2.23;68.09
44044;BME280;29709;52.396;16.796;2023-02-10T07:47:17;103340.53;;;2.28;67.81
44044;BME280;29709;52.396;16.796;2023-02-10T07:50:22;103354.84;;;2.33;67.83
44044;BME280;29709;52.396;16.796;2023-02-10T07:53:27;103350.07;;;2.40;67.79
44044;BME280;29709;52.396;16.796;2023-02-10T07:56:32;103349.05;;;2.44;67.72
44044;BME280;29709;52.396;16.796;2023-02-10T07:59:37;103345.45;;;2.43;67.69
44044;BME280;29709;52.396;16.796;2023-02-10T08:02:42;103350.88;;;2.43;67.81
44044;BME280;29709;52.396;16.796;2023-02-10T08:06:22;103355.42;;;2.43;67.77
44044;BME280;29709;52.396;16.796;2023-02-10T08:09:26;103336.41;;;2.43;67.93
44044;BME280;29709;52.396;16.796;2023-02-10T08:12:29;103329.87;;;2.48;67.66
44044;BME280;29709;52.396;16.796;2023-02-10T08:15:33;103332.51;;;2.51;67.67
44044;BME280;29709;52.396;16.796;2023-02-10T08:18:38;103348.67;;;2.54;67.77
44044;BME280;29709;52.396;16.796;2023-02-10T08:21:42;103354.86;;;2.58;67.65
44044;BME280;29709;52.396;16.796;2023-02-10T08:24:45;103362.18;;;2.56;67.67
44044;BME280;29709;52.396;16.796;2023-02-10T08:27:48;103372.09;;;2.57;67.68
44044;BME280;29709;52.396;16.796;2023-02-10T08:31:22;103368.38;;;2.59;67.66
44044;BME280;29709;52.396;16.796;2023-02-10T08:34:25;103377.20;;;2.66;67.46
44044;BME280;29709;52.396;16.796;2023-02-10T08:37:29;103376.20;;;2.69;67.51
44044;BME280;29709;52.396;16.796;2023-02-10T08:40:34;103380.81;;;2.67;67.47
44044;BME280;29709;52.396;16.796;2023-02-10T08:43:39;103385.29;;;2.68;67.46
44044;BME280;29709;52.396;16.796;2023-02-10T08:46:44;103397.16;;;2.65;67.55
44044;BME280;29709;52.396;16.796;2023-02-10T08:49:49;103388.06;;;2.66;67.60
44044;BME280;29709;52.396;16.796;2023-02-10T08:52:57;103387.18;;;2.66;67.77
44044;BME280;29709;52.396;16.796;2023-02-10T08:56:27;103386.18;;;2.68;67.97
44044;BME280;29709;52.396;16.796;2023-02-10T08:59:30;103378.77;;;2.73;67.94
44044;BME280;29709;52.396;16.796;2023-02-10T09:02:34;103384.83;;;2.81;68.04
44044;BME280;29709;52.396;16.796;2023-02-10T09:05:40;103381.80;;;2.89;67.95
44044;BME280;29709;52.396;16.796;2023-02-10T09:08:45;103379.97;;;2.89;68.02
44044;BME280;29709;52.396;16.796;2023-02-10T09:11:51;103375.22;;;2.96;67.85
44044;BME280;29709;52.396;16.796;2023-02-10T09:14:55;103378.88;;;2.95;68.05
44044;BME280;29709;52.396;16.796;2023-02-10T09:18:00;103394.59;;;3.10;68.18
44044;BME280;29709;52.396;16.796;2023-02-10T09:21:33;103416.39;;;3.09;67.96
44044;BME280;29709;52.396;16.796;2023-02-10T09:24:36;103411.73;;;3.12;68.09
44044;BME280;29709;52.396;16.796;2023-02-10T09:27:40;103418.66;;;3.21;67.84
44044;BME280;29709;52.396;16.796;2023-02-10T09:30:45;103415.12;;;3.19;67.98
44044;BME280;29709;52.396;16.796;2023-02-10T09:33:50;103437.98;;;3.13;68.41
44044;BME280;29709;52.396;16.796;2023-02-10T09:36:56;103427.70;;;3.22;68.27
44044;BME280;29709;52.396;16.796;2023-02-10T09:40:03;103425.30;;;3.14;68.76
44044;BME280;29709;52.396;16.796;2023-02-10T09:46:59;103426.17;;;3.14;69.13
44044;BME280;29709;52.396;16.796;2023-02-10T09:53:22;103417.02;;;3.17;69.33
44044;BME280;29709;52.396;16.796;2023-02-10T09:56:27;103409.62;;;3.21;69.41
44044;BME280;29709;52.396;16.796;2023-02-10T09:59:34;103410.23;;;3.29;69.10
44044;BME280;29709;52.396;16.796;2023-02-10T10:03:07;103408.58;;;3.25;69.39
44044;BME280;29709;52.396;16.796;2023-02-10T10:06:22;103402.95;;;3.29;69.30
44044;BME280;29709;52.396;16.796;2023-02-10T10:09:41;103405.55;;;3.32;69.03
44044;BME280;29709;52.396;16.796;2023-02-10T10:12:41;103404.60;;;3.33;69.04
44044;BME280;29709;52.396;16.796;2023-02-10T10:29:54;103397.46;;;3.31;69.61
44044;BME280;29709;52.396;16.796;2023-02-10T10:33:02;103404.73;;;3.30;69.91
44044;BME280;29709;52.396;16.796;2023-02-10T10:36:14;103416.97;;;3.42;69.92
44044;BME280;29709;52.396;16.796;2023-02-10T10:42:40;103411.02;;;3.56;69.47
44044;BME280;29709;52.396;16.796;2023-02-10T10:45:49;103415.32;;;3.61;69.96
44044;BME280;29709;52.396;16.796;2023-02-10T10:48:54;103404.55;;;3.82;69.31
44044;BME280;29709;52.396;16.796;2023-02-10T10:52:27;103404.67;;;3.79;69.14
44044;BME280;29709;52.396;16.796;2023-02-10T10:58:49;103400.94;;;3.81;69.44
44044;BME280;29709;52.396;16.796;2023-02-10T11:01:53;103401.52;;;3.89;69.48
44044;BME280;29709;52.396;16.796;2023-02-10T11:05:04;103407.85;;;3.90;69.58
44044;BME280;29709;52.396;16.796;2023-02-10T11:14:43;103394.90;;;4.18;68.63
44044;BME280;29709;52.396;16.796;2023-02-10T11:17:48;103377.41;;;4.24;68.73
44044;BME280;29709;52.396;16.796;2023-02-10T11:21:16;103383.74;;;4.24;68.90
44044;BME280;29709;52.396;16.796;2023-02-10T11:24:24;103384.45;;;4.29;68.39
44044;BME280;29709;52.396;16.796;2023-02-10T11:27:28;103387.78;;;4.36;68.54
44044;BME280;29709;52.396;16.796;2023-02-10T11:30:36;103388.61;;;4.38;68.68
44044;BME280;29709;52.396;16.796;2023-02-10T11:33:40;103375.37;;;4.51;68.45
44044;BME280;29709;52.396;16.796;2023-02-10T11:36:44;103376.17;;;4.53;68.55
44044;BME280;29709;52.396;16.796;2023-02-10T11:39:55;103370.05;;;4.68;68.39
44044;BME280;29709;52.396;16.796;2023-02-10T11:43:00;103373.80;;;4.86;67.90
44044;BME280;29709;52.396;16.796;2023-02-10T11:46:30;103370.58;;;4.97;68.01
44044;BME280;29709;52.396;16.796;2023-02-10T11:49:35;103358.61;;;5.01;67.92
44044;BME280;29709;52.396;16.796;2023-02-10T11:52:39;103348.29;;;5.07;67.42
44044;BME280;29709;52.396;16.796;2023-02-10T11:55:52;103350.94;;;5.09;67.36
44044;BME280;29709;52.396;16.796;2023-02-10T11:59:08;103354.36;;;5.14;67.25
44044;BME280;29709;52.396;16.796;2023-02-10T12:05:43;103349.83;;;5.33;67.15
44044;BME280;29709;52.396;16.796;2023-02-10T12:08:56;103346.34;;;5.30;66.80
44044;BME280;29709;52.396;16.796;2023-02-10T12:12:11;103355.63;;;5.26;66.74
44044;BME280;29709;52.396;16.796;2023-02-10T12:15:25;103357.16;;;5.12;67.18
44044;BME280;29709;52.396;16.796;2023-02-10T12:35:04;103363.24;;;5.75;66.07
44044;BME280;29709;52.396;16.796;2023-02-10T12:38:21;103364.41;;;5.70;66.39
44044;BME280;29709;52.396;16.796;2023-02-10T12:41:35;103361.84;;;5.67;66.23
44044;BME280;29709;52.396;16.796;2023-02-10T12:44:53;103363.45;;;5.71;66.65
44044;BME280;29709;52.396;16.796;2023-02-10T12:48:12;103364.05;;;5.77;66.29
44044;BME280;29709;52.396;16.796;2023-02-10T12:51:27;103360.68;;;5.91;66.85
44044;BME280;29709;52.396;16.796;2023-02-10T12:54:39;103359.63;;;5.94;66.22
44044;BME280;29709;52.396;16.796;2023-02-10T12:57:53;103359.72;;;5.92;66.03
44044;BME280;29709;52.396;16.796;2023-02-10T13:04:22;103356.16;;;5.71;66.24
44044;BME280;29709;52.396;16.796;2023-02-10T13:10:48;103363.02;;;5.61;66.41
44044;BME280;29709;52.396;16.796;2023-02-10T13:13:53;103357.55;;;5.61;66.67
44044;BME280;29709;52.396;16.796;2023-02-10T13:17:22;103361.40;;;5.57;66.95
44044;BME280;29709;52.396;16.796;2023-02-10T13:23:49;103363.89;;;5.62;67.22
44044;BME280;29709;52.396;16.796;2023-02-10T13:30:32;103360.52;;;5.75;66.99
44044;BME280;29709;52.396;16.796;2023-02-10T13:36:36;103364.70;;;5.83;66.72
44044;BME280;29709;52.396;16.796;2023-02-10T13:46:35;103355.23;;;5.91;66.69
44044;BME280;29709;52.396;16.796;2023-02-10T13:54:26;103350.41;;;5.77;67.18
44044;BME280;29709;52.396;16.796;2023-02-10T13:57:36;103356.59;;;5.81;67.14
44044;BME280;29709;52.396;16.796;2023-02-10T14:00:46;103347.31;;;5.85;67.18
44044;BME280;29709;52.396;16.796;2023-02-10T14:03:55;103345.38;;;5.87;67.20
44044;BME280;29709;52.396;16.796;2023-02-10T14:06:58;103345.10;;;5.93;66.97
44044;BME280;29709;52.396;16.796;2023-02-10T14:10:26;103343.34;;;5.92;66.86
44044;BME280;29709;52.396;16.796;2023-02-10T14:13:22;103346.72;;;5.78;66.96
44044;BME280;29709;52.396;16.796;2023-02-10T14:16:31;103353.30;;;5.74;67.56
44044;BME280;29709;52.396;16.796;2023-02-10T14:19:40;103340.91;;;5.67;67.19
44044;BME280;29709;52.396;16.796;2023-02-10T14:22:49;103350.93;;;5.67;67.34
44044;BME280;29709;52.396;16.796;2023-02-10T14:25:58;103355.19;;;5.72;67.67
44044;BME280;29709;52.396;16.796;2023-02-10T14:29:02;103348.85;;;5.72;67.70
44044;BME280;29709;52.396;16.796;2023-02-10T14:32:32;103352.41;;;5.74;67.78
44044;BME280;29709;52.396;16.796;2023-02-10T14:35:48;103346.48;;;5.83;67.49
44044;BME280;29709;52.396;16.796;2023-02-10T14:38:56;103351.66;;;5.89;67.77
44044;BME280;29709;52.396;16.796;2023-02-10T14:42:04;103351.80;;;5.86;67.31
44044;BME280;29709;52.396;16.796;2023-02-10T14:48:23;103345.03;;;5.76;67.14
44044;BME280;29709;52.396;16.796;2023-02-10T14:51:53;103345.33;;;5.70;67.58
44044;BME280;29709;52.396;16.796;2023-02-10T14:54:59;103349.24;;;5.64;67.86
44044;BME280;29709;52.396;16.796;2023-02-10T14:58:14;103350.26;;;5.62;67.81
44044;BME280;29709;52.396;16.796;2023-02-10T15:01:34;103365.61;;;5.64;67.81
44044;BME280;29709;52.396;16.796;2023-02-10T15:04:33;103356.55;;;5.64;67.56
44044;BME280;29709;52.396;16.796;2023-02-10T15:07:39;103355.71;;;5.62;68.20
44044;BME280;29709;52.396;16.796;2023-02-10T15:10:47;103352.95;;;5.63;67.61
44044;BME280;29709;52.396;16.796;2023-02-10T15:13:54;103355.51;;;5.66;67.99
44044;BME280;29709;52.396;16.796;2023-02-10T15:17:34;103355.66;;;5.63;67.87
44044;BME280;29709;52.396;16.796;2023-02-10T15:20:38;103348.41;;;5.62;67.80
44044;BME280;29709;52.396;16.796;2023-02-10T15:23:48;103352.05;;;5.63;68.04
44044;BME280;29709;52.396;16.796;2023-02-10T15:33:27;103358.68;;;5.57;68.16
44044;BME280;29709;52.396;16.796;2023-02-10T15:36:43;103359.72;;;5.55;67.99
44044;BME280;29709;52.396;16.796;2023-02-10T15:43:46;103357.58;;;5.42;68.59
44044;BME280;29709;52.396;16.796;2023-02-10T15:46:15;103352.39;;;5.36;68.38
44044;BME280;29709;52.396;16.796;2023-02-10T15:49:20;103351.67;;;5.33;68.82
44044;BME280;29709;52.396;16.796;2023-02-10T15:52:49;103357.47;;;5.25;69.03
44044;BME280;29709;52.396;16.796;2023-02-10T15:55:52;103354.82;;;5.24;69.27
44044;BME280;29709;52.396;16.796;2023-02-10T15:58:56;103342.27;;;5.19;69.59
44044;BME280;29709;52.396;16.796;2023-02-10T16:02:01;103352.98;;;5.24;69.36
44044;BME280;29709;52.396;16.796;2023-02-10T16:05:05;103349.45;;;5.22;69.26
44044;BME280;29709;52.396;16.796;2023-02-10T16:08:21;103337.70;;;5.20;69.44
44044;BME280;29709;52.396;16.796;2023-02-10T16:11:24;103335.13;;;5.17;69.62
44044;BME280;29709;52.396;16.796;2023-02-10T16:14:31;103333.36;;;5.16;70.03
44044;BME280;29709;52.396;16.796;2023-02-10T16:18:01;103344.55;;;5.10;69.98
44044;BME280;29709;52.396;16.796;2023-02-10T16:21:05;103344.62;;;5.08;69.95
44044;BME280;29709;52.396;16.796;2023-02-10T16:24:14;103349.98;;;5.10;70.14
44044;BME280;29709;52.396;16.796;2023-02-10T16:27:18;103354.64;;;5.08;70.15
44044;BME280;29709;52.396;16.796;2023-02-10T16:30:27;103360.09;;;5.08;70.48
44044;BME280;29709;52.396;16.796;2023-02-10T16:33:30;103363.77;;;5.07;70.49
44044;BME280;29709;52.396;16.796;2023-02-10T16:36:37;103370.18;;;5.06;70.62
44044;BME280;29709;52.396;16.796;2023-02-10T16:39:41;103370.18;;;5.06;70.72
44044;BME280;29709;52.396;16.796;2023-02-10T16:43:10;103374.89;;;5.02;70.76
44044;BME280;29709;52.396;16.796;2023-02-10T16:46:15;103370.91;;;5.09;70.91
44044;BME280;29709;52.396;16.796;2023-02-10T16:49:19;103369.37;;;5.04;70.85
44044;BME280;29709;52.396;16.796;2023-02-10T16:52:23;103374.76;;;5.05;71.05
44044;BME280;29709;52.396;16.796;2023-02-10T16:55:27;103374.67;;;5.07;70.61
44044;BME280;29709;52.396;16.796;2023-02-10T16:58:30;103381.23;;;5.03;71.13
44044;BME280;29709;52.396;16.796;2023-02-10T17:01:34;103384.84;;;5.03;70.94
44044;BME280;29709;52.396;16.796;2023-02-10T17:04:37;103377.47;;;5.05;71.03
44044;BME280;29709;52.396;16.796;2023-02-10T17:07:41;103377.70;;;5.01;70.87
44044;BME280;29709;52.396;16.796;2023-02-10T17:11:13;103392.32;;;4.98;71.30
44044;BME280;29709;52.396;16.796;2023-02-10T17:14:17;103384.07;;;5.00;71.25
44044;BME280;29709;52.396;16.796;2023-02-10T17:17:20;103388.63;;;4.99;71.24
44044;BME280;29709;52.396;16.796;2023-02-10T17:20:30;103393.09;;;5.02;71.60
44044;BME280;29709;52.396;16.796;2023-02-10T17:23:34;103388.30;;;5.07;71.14
44044;BME280;29709;52.396;16.796;2023-02-10T17:26:38;103405.60;;;5.06;71.14
44044;BME280;29709;52.396;16.796;2023-02-10T17:29:51;103401.27;;;5.02;71.31
44044;BME280;29709;52.396;16.796;2023-02-10T17:33:25;103406.71;;;5.02;71.37
44044;BME280;29709;52.396;16.796;2023-02-10T17:36:33;103407.60;;;5.02;71.30
44044;BME280;29709;52.396;16.796;2023-02-10T17:39:37;103422.92;;;5.05;71.50
44044;BME280;29709;52.396;16.796;2023-02-10T17:42:43;103415.56;;;5.07;71.24
44044;BME280;29709;52.396;16.796;2023-02-10T17:45:49;103420.12;;;5.06;71.41
44044;BME280;29709;52.396;16.796;2023-02-10T17:48:52;103421.96;;;5.06;71.36
44044;BME280;29709;52.396;16.796;2023-02-10T17:51:56;103412.83;;;5.07;71.26
44044;BME280;29709;52.396;16.796;2023-02-10T17:55:04;103396.55;;;5.05;71.31
44044;BME280;29709;52.396;16.796;2023-02-10T17:58:33;103390.41;;;5.00;71.48
44044;BME280;29709;52.396;16.796;2023-02-10T18:01:37;103392.32;;;4.98;71.56
44044;BME280;29709;52.396;16.796;2023-02-10T18:04:40;103394.16;;;4.98;71.37
44044;BME280;29709;52.396;16.796;2023-02-10T18:07:48;103397.05;;;4.95;71.69
44044;BME280;29709;52.396;16.796;2023-02-10T18:10:52;103402.64;;;4.91;71.69
44044;BME280;29709;52.396;16.796;2023-02-10T18:13:56;103394.53;;;4.90;71.96
44044;BME280;29709;52.396;16.796;2023-02-10T18:17:00;103397.29;;;4.88;71.55
44044;BME280;29709;52.396;16.796;2023-02-10T18:20:04;103390.84;;;4.91;71.79
44044;BME280;29709;52.396;16.796;2023-02-10T18:23:08;103383.74;;;4.87;71.65
44044;BME280;29709;52.396;16.796;2023-02-10T18:26:36;103401.12;;;4.84;71.94